createdAt,value
2017-07-05T00:02:10.724Z,10.45
2017-07-05T00:04:38.283Z,10.75
2017-07-05T00:07:05.796Z,11.50
2017-07-05T00:09:33.334Z,10.02
2017-07-05T00:12:00.838Z,12.02
2017-07-05T00:14:29.234Z,12.20
2017-07-05T00:16:56.843Z,13.52
2017-07-05T00:19:24.463Z,12.95
2017-07-05T00:21:52.022Z,13.48
2017-07-05T00:24:19.526Z,12.45
2017-07-05T00:26:47.156Z,12.23
2017-07-05T00:29:14.698Z,13.62
2017-07-05T00:31:42.212Z,11.73
2017-07-05T00:34:09.770Z,11.50
2017-07-05T00:36:37.273Z,13.18
2017-07-05T00:39:04.787Z,12.00
2017-07-05T00:41:32.319Z,12.13
2017-07-05T00:43:59.859Z,13.18
2017-07-05T00:46:27.415Z,15.88
2017-07-05T00:48:54.976Z,15.15
2017-07-05T00:51:22.527Z,15.10
2017-07-05T00:53:50.107Z,14.27
2017-07-05T00:56:17.608Z,13.50
2017-07-05T00:58:45.215Z,14.27
2017-07-05T01:01:12.752Z,14.65
2017-07-05T01:03:41.055Z,14.65
2017-07-05T01:06:08.615Z,15.00
2017-07-05T01:08:36.152Z,13.30
2017-07-05T01:11:03.731Z,14.13
2017-07-05T01:13:31.291Z,16.60
2017-07-05T01:15:58.819Z,15.30
2017-07-05T01:18:27.095Z,17.25
2017-07-05T01:20:55.400Z,14.35
2017-07-05T01:23:22.966Z,15.93
2017-07-05T01:25:50.530Z,15.30
2017-07-05T01:28:18.039Z,15.60
2017-07-05T01:30:45.566Z,13.60
2017-07-05T01:33:13.203Z,17.50
2017-07-05T01:35:40.775Z,18.77
2017-07-05T01:38:08.330Z,15.60
2017-07-05T01:40:35.856Z,15.25
2017-07-05T01:43:04.127Z,15.15
2017-07-05T01:45:32.441Z,15.23
2017-07-05T01:47:59.999Z,16.25
2017-07-05T01:50:27.507Z,15.07
2017-07-05T01:52:55.087Z,13.13
2017-07-05T01:55:22.585Z,13.52
2017-07-05T01:57:50.111Z,16.23
2017-07-05T02:00:18.411Z,16.37
2017-07-05T02:02:45.939Z,15.23
2017-07-05T02:05:14.247Z,14.02
2017-07-05T02:07:41.799Z,15.55
2017-07-05T02:10:09.312Z,19.42
2017-07-05T02:12:36.827Z,18.12
2017-07-05T02:15:04.382Z,16.83
2017-07-05T02:17:31.947Z,15.55
2017-07-05T02:19:59.507Z,14.82
2017-07-05T02:22:27.066Z,15.30
2017-07-05T02:24:54.635Z,18.70
2017-07-05T02:27:22.146Z,18.77
2017-07-05T02:29:49.647Z,15.15
2017-07-05T02:32:17.207Z,14.30
2017-07-05T02:34:44.770Z,15.00
2017-07-05T02:37:12.422Z,15.55
2017-07-05T02:39:39.992Z,14.52
2017-07-05T02:42:07.526Z,17.30
2017-07-05T02:44:35.930Z,18.45
2017-07-05T02:47:03.458Z,19.37
2017-07-05T02:49:31.863Z,20.20
2017-07-05T02:51:59.427Z,20.35
2017-07-05T02:54:26.982Z,18.60
2017-07-05T02:56:54.544Z,17.33
2017-07-05T02:59:22.103Z,17.02
2017-07-05T03:01:49.867Z,16.00
2017-07-05T03:04:17.367Z,15.98
2017-07-05T03:06:44.883Z,16.77
2017-07-05T03:09:12.451Z,17.67
2017-07-05T03:11:40.011Z,15.75
2017-07-05T03:14:07.516Z,17.40
2017-07-05T03:16:35.127Z,17.52
2017-07-05T03:19:02.686Z,17.65
2017-07-05T03:21:30.247Z,16.92
2017-07-05T03:23:57.775Z,18.20
2017-07-05T03:26:26.076Z,17.80
2017-07-05T03:28:53.591Z,17.85
2017-07-05T03:31:21.198Z,19.83
2017-07-05T03:33:48.706Z,21.02
2017-07-05T03:36:16.239Z,18.60
2017-07-05T03:38:43.780Z,16.67
2017-07-05T03:41:11.344Z,17.67
2017-07-05T03:43:38.903Z,18.25
2017-07-05T03:46:06.470Z,17.62
2017-07-05T03:48:34.021Z,17.83
2017-07-05T03:51:01.550Z,17.12
2017-07-05T03:53:30.167Z,18.00
2017-07-05T03:55:57.675Z,16.62
2017-07-05T03:58:25.286Z,18.30
2017-07-05T04:00:52.817Z,18.83
2017-07-05T04:03:21.091Z,21.58
2017-07-05T04:05:49.400Z,17.80
2017-07-05T04:08:16.958Z,14.75
2017-07-05T04:10:44.465Z,18.77
2017-07-05T04:13:12.180Z,15.55
2017-07-05T04:15:39.695Z,14.87
2017-07-05T04:18:07.299Z,13.85
2017-07-05T04:20:34.859Z,11.95
2017-07-05T04:23:02.368Z,14.27
2017-07-05T04:25:29.898Z,14.25
2017-07-05T04:27:57.455Z,12.50
2017-07-05T04:30:24.992Z,12.25
2017-07-05T04:32:52.677Z,13.00
2017-07-05T04:35:20.223Z,14.85
2017-07-05T04:37:47.782Z,13.70
2017-07-05T04:40:15.342Z,15.07
2017-07-05T04:42:42.878Z,12.30
2017-07-05T04:45:11.155Z,11.63
2017-07-05T04:47:39.511Z,13.15
2017-07-05T04:50:07.115Z,14.93
2017-07-05T04:52:34.679Z,13.40
2017-07-05T04:55:02.234Z,14.93
2017-07-05T04:57:29.767Z,14.83
2017-07-05T04:59:58.071Z,16.20
2017-07-05T05:02:25.604Z,15.45
2017-07-05T05:04:54.011Z,16.55
2017-07-05T05:07:21.572Z,15.75
2017-07-05T05:09:49.149Z,16.35
2017-07-05T05:12:16.690Z,15.57
2017-07-05T05:14:44.251Z,15.80
2017-07-05T05:17:12.427Z,11.88
2017-07-05T05:19:39.968Z,11.50
2017-07-05T05:22:08.238Z,15.40
2017-07-05T05:24:36.538Z,15.27
2017-07-05T05:27:04.046Z,15.27
2017-07-05T05:29:31.573Z,16.07
2017-07-05T05:31:59.131Z,14.47
2017-07-05T05:34:26.680Z,14.57
2017-07-05T05:36:54.238Z,19.10
2017-07-05T05:39:21.746Z,15.33
2017-07-05T05:41:49.355Z,16.23
2017-07-05T05:44:16.923Z,14.13
2017-07-05T05:46:44.479Z,14.50
2017-07-05T05:49:11.987Z,13.93
2017-07-05T05:51:39.595Z,14.03
2017-07-05T05:54:07.132Z,14.70
2017-07-05T05:56:35.438Z,13.63
2017-07-05T05:59:02.948Z,13.50
2017-07-05T06:01:30.472Z,11.83
2017-07-05T06:03:57.998Z,12.70
2017-07-05T06:06:26.291Z,13.50
2017-07-05T06:08:53.819Z,13.53
2017-07-05T06:11:22.127Z,13.63
2017-07-05T06:13:49.630Z,11.47
2017-07-05T06:16:17.142Z,14.67
2017-07-05T06:18:44.802Z,13.23
2017-07-05T06:21:12.311Z,12.53
2017-07-05T06:23:39.814Z,14.00
2017-07-05T06:26:07.359Z,14.10
2017-07-05T06:28:35.631Z,13.27
2017-07-05T06:31:03.947Z,13.70
2017-07-05T06:33:31.494Z,13.93
2017-07-05T06:35:59.056Z,13.27
2017-07-05T06:38:26.554Z,14.00
2017-07-05T06:40:54.169Z,14.63
2017-07-05T06:43:21.671Z,14.80
2017-07-05T06:45:49.295Z,14.67
2017-07-05T06:48:16.858Z,14.60
2017-07-05T06:50:44.391Z,14.20
2017-07-05T06:53:12.663Z,15.23
2017-07-05T06:55:40.971Z,15.13
2017-07-05T06:58:08.483Z,15.50
2017-07-05T07:00:35.983Z,15.53
2017-07-05T07:03:03.510Z,16.67
2017-07-05T07:05:31.011Z,14.30
2017-07-05T07:07:58.590Z,16.90
2017-07-05T07:10:26.127Z,16.40
2017-07-05T07:12:53.683Z,15.00
2017-07-05T07:15:21.249Z,15.57
2017-07-05T07:17:48.806Z,18.60
2017-07-05T07:20:16.370Z,15.30
2017-07-05T07:22:43.935Z,18.20
2017-07-05T07:25:11.548Z,14.30
2017-07-05T07:27:39.051Z,16.30
2017-07-05T07:30:06.551Z,16.57
2017-07-05T07:32:34.075Z,16.80
2017-07-05T07:35:01.574Z,14.67
2017-07-05T07:37:29.183Z,20.03
2017-07-05T07:39:56.742Z,18.60
2017-07-05T07:42:24.247Z,17.80
2017-07-05T07:44:51.863Z,18.53
2017-07-05T07:47:19.367Z,17.73
2017-07-05T07:49:46.953Z,18.57
2017-07-05T07:52:15.248Z,15.30
2017-07-05T07:54:42.780Z,18.67
2017-07-05T07:57:10.379Z,19.27
2017-07-05T07:59:37.922Z,17.80
2017-07-05T08:02:06.223Z,16.60
2017-07-05T08:04:33.730Z,22.33
2017-07-05T08:07:01.259Z,20.63
2017-07-05T08:09:28.799Z,21.20
2017-07-05T08:11:56.359Z,20.07
2017-07-05T08:14:23.930Z,18.30
2017-07-05T08:16:51.478Z,19.80
2017-07-05T08:19:18.984Z,16.60
2017-07-05T08:21:46.599Z,20.30
2017-07-05T08:24:14.154Z,18.67
2017-07-05T08:26:41.785Z,21.40
2017-07-05T08:29:10.058Z,16.20
2017-07-05T08:31:37.656Z,17.43
2017-07-05T08:34:05.183Z,19.23
2017-07-05T08:36:33.451Z,17.60
2017-07-05T08:39:01.067Z,16.87
2017-07-05T08:41:28.611Z,16.87
2017-07-05T08:43:56.140Z,16.63
2017-07-05T08:46:24.411Z,15.47
2017-07-05T08:48:51.943Z,14.47
2017-07-05T08:51:19.446Z,14.70
2017-07-05T08:53:47.756Z,12.30
2017-07-05T08:56:15.254Z,13.80
2017-07-05T08:58:42.751Z,13.83
2017-07-05T09:01:10.274Z,16.97
2017-07-05T09:03:37.781Z,14.67
2017-07-05T09:06:05.310Z,16.10
2017-07-05T09:08:33.578Z,18.63
2017-07-05T09:11:01.907Z,21.00
2017-07-05T09:13:29.399Z,22.13
2017-07-05T09:15:56.923Z,18.07
2017-07-05T09:18:24.458Z,15.20
2017-07-05T09:20:51.963Z,15.57
2017-07-05T09:23:19.490Z,19.30
2017-07-05T09:25:47.062Z,14.97
2017-07-05T09:28:14.612Z,16.93
2017-07-05T09:30:42.148Z,15.70
2017-07-05T09:33:10.443Z,17.50
2017-07-05T09:35:37.975Z,18.70
2017-07-05T09:38:06.287Z,16.80
2017-07-05T09:40:33.794Z,14.83
2017-07-05T09:43:01.318Z,14.20
2017-07-05T09:45:28.857Z,14.20
2017-07-05T09:47:56.356Z,14.57
2017-07-05T09:50:23.976Z,19.20
2017-07-05T09:52:51.544Z,17.33
2017-07-05T09:55:19.053Z,16.27
2017-07-05T09:57:46.655Z,19.37
2017-07-05T10:00:14.150Z,16.10
2017-07-05T10:02:41.778Z,15.87
2017-07-05T10:05:09.438Z,16.83
2017-07-05T10:07:37.008Z,14.43
2017-07-05T10:10:04.572Z,11.10
2017-07-05T10:12:32.071Z,12.63
2017-07-05T10:14:59.596Z,12.83
2017-07-05T10:17:27.147Z,12.30
2017-07-05T10:19:54.675Z,12.50
2017-07-05T10:22:22.971Z,15.30
2017-07-05T10:24:50.534Z,11.93
2017-07-05T10:27:18.098Z,17.37
2017-07-05T10:29:45.622Z,15.17
2017-07-05T10:32:13.223Z,15.10
2017-07-05T10:34:40.758Z,13.30
2017-07-05T10:37:09.079Z,14.50
2017-07-05T10:39:36.616Z,12.33
2017-07-05T10:42:04.184Z,11.80
2017-07-05T10:44:31.712Z,11.17
2017-07-05T10:47:00.019Z,14.10
2017-07-05T10:49:27.560Z,13.20
2017-07-05T10:51:55.072Z,13.63
2017-07-05T10:54:22.706Z,10.90
2017-07-05T10:56:50.254Z,12.30
2017-07-05T10:59:17.810Z,13.07
2017-07-05T11:01:45.359Z,10.73
2017-07-05T11:04:12.860Z,10.40
2017-07-05T11:06:40.387Z,9.87
2017-07-05T11:09:07.915Z,10.00
2017-07-05T11:11:35.411Z,11.33
2017-07-05T11:14:02.967Z,12.17
2017-07-05T11:16:30.499Z,12.40
2017-07-05T11:18:58.798Z,11.30
2017-07-05T11:21:26.322Z,11.27
2017-07-05T11:23:53.819Z,11.03
2017-07-05T11:26:21.382Z,9.93
2017-07-05T11:28:48.956Z,9.83
2017-07-05T11:31:16.482Z,10.13
2017-07-05T11:33:44.751Z,9.33
2017-07-05T11:36:13.055Z,8.60
2017-07-05T11:38:40.615Z,8.63
2017-07-05T11:41:08.176Z,8.77
2017-07-05T11:43:35.736Z,8.13
2017-07-05T11:46:03.239Z,10.80
2017-07-05T11:48:30.870Z,9.50
2017-07-05T11:50:58.421Z,8.43
2017-07-05T11:53:25.914Z,9.83
2017-07-05T11:55:53.429Z,8.53
2017-07-05T11:58:20.926Z,7.50
2017-07-05T12:00:48.543Z,8.47
2017-07-05T12:03:16.119Z,8.27
2017-07-05T12:05:43.668Z,7.30
2017-07-05T12:08:11.247Z,9.00
2017-07-05T12:10:38.743Z,8.63
2017-07-05T12:13:06.243Z,8.63
2017-07-05T12:15:33.771Z,7.93
2017-07-05T12:18:01.372Z,7.80
2017-07-05T12:20:28.931Z,7.53
2017-07-05T12:22:58.034Z,9.07
2017-07-05T12:25:25.583Z,9.17
2017-07-05T12:27:53.079Z,15.60
2017-07-05T12:30:20.711Z,11.77
2017-07-05T12:32:48.207Z,9.53
2017-07-05T12:35:15.739Z,14.17
2017-07-05T12:37:43.242Z,12.07
2017-07-05T12:40:10.842Z,14.27
2017-07-05T12:42:38.367Z,13.00
2017-07-05T12:45:05.880Z,8.77
2017-07-05T12:47:33.422Z,9.60
2017-07-05T12:50:00.983Z,8.90
2017-07-05T12:52:28.547Z,10.53
2017-07-05T12:54:56.063Z,7.77
2017-07-05T12:57:23.670Z,8.43
2017-07-05T12:59:51.189Z,8.57
2017-07-05T13:02:18.711Z,9.80
2017-07-05T13:04:46.233Z,8.23
2017-07-05T13:07:13.799Z,8.83
2017-07-05T13:09:41.359Z,9.40
2017-07-05T13:12:08.922Z,7.60
2017-07-05T13:14:36.423Z,9.43
2017-07-05T13:17:03.943Z,8.07
2017-07-05T13:19:31.459Z,6.87
2017-07-05T13:21:59.738Z,8.90
2017-07-05T13:24:27.435Z,9.50
2017-07-05T13:26:55.000Z,9.30
2017-07-05T13:29:22.562Z,9.60
2017-07-05T13:31:50.083Z,9.20
2017-07-05T13:34:17.607Z,7.00
2017-07-05T13:36:45.135Z,9.43
2017-07-05T13:39:12.695Z,11.60
2017-07-05T13:41:40.254Z,8.03
2017-07-05T13:44:07.815Z,7.80
2017-07-05T13:46:35.379Z,11.10
2017-07-05T13:49:02.875Z,9.10
2017-07-05T13:51:30.495Z,10.50
2017-07-05T13:53:58.024Z,10.27
2017-07-05T13:56:25.611Z,8.30
2017-07-05T13:58:53.303Z,9.53
2017-07-05T14:01:20.834Z,10.60
2017-07-05T14:03:48.327Z,10.07
2017-07-05T14:06:16.058Z,9.10
2017-07-05T14:08:43.555Z,8.73
2017-07-05T14:11:11.055Z,9.40
2017-07-05T14:13:39.351Z,8.87
2017-07-05T14:16:06.851Z,9.60
2017-07-05T14:18:34.383Z,21.20
2017-07-05T14:21:01.886Z,178.67
2017-07-05T14:23:29.391Z,177.37
2017-07-05T14:25:56.963Z,88.73
2017-07-05T14:28:24.464Z,49.87
2017-07-05T14:30:52.074Z,24.27
2017-07-05T14:33:19.639Z,21.53
2017-07-05T14:35:47.162Z,10.63
2017-07-05T14:38:15.466Z,19.17
2017-07-05T14:40:43.000Z,10.10
2017-07-05T14:43:11.309Z,7.90
2017-07-05T14:45:38.800Z,7.10
2017-07-05T14:48:06.422Z,11.00
2017-07-05T14:50:33.915Z,7.63
2017-07-05T14:53:01.430Z,8.53
2017-07-05T14:55:29.687Z,8.33
2017-07-05T14:57:57.203Z,8.97
2017-07-05T15:00:24.698Z,6.63
2017-07-05T15:02:52.219Z,6.47
2017-07-05T15:05:19.711Z,8.23
2017-07-05T15:07:47.332Z,8.70
2017-07-05T15:10:14.822Z,7.43
2017-07-05T15:12:42.330Z,7.47
2017-07-05T15:15:09.847Z,7.47
2017-07-05T15:17:37.368Z,8.60
2017-07-05T15:20:04.862Z,9.60
2017-07-05T15:22:32.558Z,22.27
2017-07-05T15:25:00.850Z,8.30
2017-07-05T15:27:28.351Z,7.03
2017-07-05T15:29:55.875Z,9.50
2017-07-05T15:32:23.398Z,8.37
2017-07-05T15:34:51.702Z,9.40
2017-07-05T15:37:19.375Z,10.40
2017-07-05T15:39:47.047Z,7.63
2017-07-05T15:42:14.557Z,8.00
2017-07-05T15:44:42.533Z,8.17
2017-07-05T15:47:10.239Z,7.33
2017-07-05T15:49:37.803Z,6.70
2017-07-05T15:52:05.310Z,6.97
2017-07-05T15:54:33.619Z,7.30
2017-07-05T15:57:01.157Z,7.20
2017-07-05T15:59:29.587Z,6.90
2017-07-05T16:01:57.119Z,6.93
2017-07-05T16:04:24.683Z,7.10
2017-07-05T16:06:52.252Z,6.30
2017-07-05T16:09:19.799Z,8.03
2017-07-05T16:11:47.321Z,6.90
2017-07-05T16:14:14.923Z,9.50
2017-07-05T16:16:42.463Z,8.07
2017-07-05T16:19:10.774Z,7.60
2017-07-05T16:21:38.319Z,7.00
2017-07-05T16:24:05.880Z,8.27
2017-07-05T16:26:33.371Z,8.40
2017-07-05T16:29:00.864Z,8.30
2017-07-05T16:31:28.387Z,8.67
2017-07-05T16:33:55.918Z,9.10
2017-07-05T16:36:23.482Z,9.20
2017-07-05T16:38:51.129Z,8.33
2017-07-05T16:41:18.702Z,7.10
2017-07-05T16:43:46.260Z,8.23
2017-07-05T16:46:13.824Z,8.10
2017-07-05T16:48:41.389Z,8.63
2017-07-05T16:51:09.040Z,7.00
2017-07-05T16:53:36.613Z,6.23
2017-07-05T16:56:04.117Z,8.43
2017-07-05T16:58:33.259Z,6.90
2017-07-05T17:01:00.752Z,6.30
2017-07-05T17:03:28.281Z,8.70
2017-07-05T17:05:55.804Z,7.57
2017-07-05T17:08:24.065Z,8.40
2017-07-05T17:10:51.777Z,10.33
2017-07-05T17:13:19.340Z,7.87
2017-07-05T17:15:46.897Z,7.80
2017-07-05T17:18:14.428Z,20.90
2017-07-05T17:20:42.834Z,8.20
2017-07-05T17:23:10.404Z,7.30
2017-07-05T17:25:37.898Z,8.10
2017-07-05T17:28:05.515Z,9.17
2017-07-05T17:30:33.015Z,9.20
2017-07-05T17:33:00.645Z,10.20
2017-07-05T17:35:28.194Z,7.80
2017-07-05T17:37:55.740Z,7.40
2017-07-05T17:40:24.040Z,7.53
2017-07-05T17:42:51.591Z,8.03
2017-07-05T17:45:19.166Z,8.83
2017-07-05T17:47:46.663Z,7.03
2017-07-05T17:50:14.176Z,7.77
2017-07-05T17:52:41.727Z,7.70
2017-07-05T17:55:09.388Z,5.70
2017-07-05T17:57:36.892Z,6.20
2017-07-05T18:00:04.411Z,6.40
2017-07-05T18:02:31.933Z,7.30
2017-07-05T18:04:59.528Z,6.70
2017-07-05T18:07:27.040Z,5.90
2017-07-05T18:09:54.552Z,6.27
2017-07-05T18:12:22.075Z,7.60
2017-07-05T18:14:50.402Z,6.20
2017-07-05T18:17:18.049Z,6.60
2017-07-05T18:19:45.619Z,6.10
2017-07-05T18:22:13.171Z,5.40
2017-07-05T18:24:40.728Z,6.07
2017-07-05T18:27:08.307Z,8.00
2017-07-05T18:29:35.811Z,6.77
2017-07-05T18:32:03.410Z,7.03
2017-07-05T18:34:30.927Z,7.93
2017-07-05T18:36:58.451Z,7.70
2017-07-05T18:39:25.945Z,6.53
2017-07-05T18:41:53.467Z,7.20
2017-07-05T18:44:20.959Z,6.80
2017-07-05T18:46:48.555Z,7.40
2017-07-05T18:49:16.051Z,8.53
2017-07-05T18:51:43.578Z,7.23
2017-07-05T18:54:11.095Z,6.20
2017-07-05T18:56:38.599Z,6.57
2017-07-05T18:59:06.359Z,7.60
2017-07-05T19:01:33.859Z,7.83
2017-07-05T19:04:01.350Z,6.83
2017-07-05T19:06:28.939Z,6.37
2017-07-05T19:08:56.499Z,7.07
2017-07-05T19:11:24.024Z,7.53
2017-07-05T19:13:51.514Z,8.53
2017-07-05T19:16:19.078Z,6.30
2017-07-05T19:18:46.638Z,8.83
2017-07-05T19:21:14.131Z,8.57
2017-07-05T19:23:41.659Z,8.40
2017-07-05T19:26:09.187Z,7.70
2017-07-05T19:28:37.479Z,8.37
2017-07-05T19:31:05.767Z,8.03
2017-07-05T19:33:33.434Z,6.33
2017-07-05T19:36:00.994Z,8.00
2017-07-05T19:38:28.551Z,7.70
2017-07-05T19:40:56.091Z,8.03
2017-07-05T19:43:24.391Z,9.20
2017-07-05T19:45:51.965Z,8.33
2017-07-05T19:48:19.513Z,9.00
2017-07-05T19:50:47.071Z,9.07
2017-07-05T19:53:14.719Z,10.57
2017-07-05T19:55:42.291Z,10.40
2017-07-05T19:58:09.854Z,9.10
2017-07-05T20:00:37.383Z,9.07
2017-07-05T20:03:05.688Z,11.37
2017-07-05T20:05:33.247Z,10.73
2017-07-05T20:08:00.813Z,10.00
2017-07-05T20:10:28.311Z,10.20
2017-07-05T20:12:55.927Z,9.60
2017-07-05T20:15:23.495Z,10.50
2017-07-05T20:17:51.065Z,10.80
2017-07-05T20:20:18.606Z,10.13
2017-07-05T20:22:46.130Z,10.27
2017-07-05T20:25:13.746Z,10.30
2017-07-05T20:27:41.274Z,10.50
2017-07-05T20:30:09.667Z,10.23
2017-07-05T20:32:37.230Z,10.20
2017-07-05T20:35:04.797Z,9.73
2017-07-05T20:37:32.299Z,12.30
2017-07-05T20:39:59.798Z,11.40
2017-07-05T20:42:27.324Z,14.30
2017-07-05T20:44:54.927Z,12.57
2017-07-05T20:47:22.434Z,12.47
2017-07-05T20:49:50.048Z,12.17
2017-07-05T20:52:17.611Z,13.33
2017-07-05T20:54:45.171Z,12.53
2017-07-05T20:57:12.675Z,13.20
2017-07-05T20:59:40.291Z,13.20
2017-07-05T21:02:07.851Z,13.10
2017-07-05T21:04:35.379Z,13.03
2017-07-05T21:07:03.647Z,12.90
2017-07-05T21:09:31.146Z,14.73
2017-07-05T21:11:58.706Z,13.80
2017-07-05T21:14:26.231Z,14.73
2017-07-05T21:16:54.506Z,14.10
2017-07-05T21:19:22.782Z,14.00
2017-07-05T21:21:51.090Z,15.33
2017-07-05T21:24:18.592Z,15.43
2017-07-05T21:26:46.212Z,16.33
2017-07-05T21:29:13.771Z,14.30
2017-07-05T21:31:41.342Z,14.93
2017-07-05T21:34:08.848Z,15.50
2017-07-05T21:36:36.383Z,13.63
2017-07-05T21:39:03.914Z,13.50
2017-07-05T21:41:31.475Z,12.90
2017-07-05T21:43:59.238Z,13.40
2017-07-05T21:46:26.799Z,14.83
2017-07-05T21:48:54.364Z,13.13
2017-07-05T21:51:22.021Z,14.17
2017-07-05T21:53:49.530Z,14.33
2017-07-05T21:56:17.031Z,14.47
2017-07-05T21:58:44.603Z,13.20
2017-07-05T22:01:12.364Z,14.00
2017-07-05T22:03:39.923Z,12.90
2017-07-05T22:06:07.486Z,12.60
2017-07-05T22:08:35.043Z,12.20
2017-07-05T22:11:02.546Z,12.27
2017-07-05T22:13:30.074Z,12.40
2017-07-05T22:15:57.618Z,14.27
2017-07-05T22:18:25.285Z,12.50
2017-07-05T22:20:52.779Z,13.33
2017-07-05T22:23:20.286Z,12.10
2017-07-05T22:25:47.861Z,13.30
2017-07-05T22:28:15.419Z,13.43
2017-07-05T22:30:42.951Z,11.40
2017-07-05T22:33:11.255Z,12.17
2017-07-05T22:35:38.822Z,13.40
2017-07-05T22:38:06.362Z,13.73
2017-07-05T22:40:34.631Z,12.63
2017-07-05T22:43:02.931Z,10.20
2017-07-05T22:45:30.434Z,12.60
2017-07-05T22:47:58.154Z,12.23
2017-07-05T22:50:25.659Z,12.30
2017-07-05T22:52:53.162Z,12.23
2017-07-05T22:55:20.726Z,14.07
2017-07-05T22:57:48.229Z,12.63
2017-07-05T23:00:15.843Z,11.93
2017-07-05T23:02:43.416Z,11.90
2017-07-05T23:05:10.971Z,11.00
2017-07-05T23:07:38.530Z,11.83
2017-07-05T23:10:06.106Z,10.60
2017-07-05T23:12:33.650Z,15.30
2017-07-05T23:15:01.175Z,13.43
2017-07-05T23:17:29.590Z,13.70
2017-07-05T23:19:57.099Z,10.80
2017-07-05T23:22:24.706Z,8.70
2017-07-05T23:24:52.271Z,10.50
2017-07-05T23:27:19.804Z,9.37
2017-07-05T23:29:48.075Z,11.97
2017-07-05T23:32:16.342Z,12.17
2017-07-05T23:34:43.943Z,10.10
2017-07-05T23:37:11.506Z,9.37
2017-07-05T23:39:39.031Z,11.67
2017-07-05T23:42:07.323Z,11.50
2017-07-05T23:44:35.617Z,10.50
2017-07-05T23:47:03.139Z,9.90
2017-07-05T23:49:30.634Z,8.90
2017-07-05T23:51:58.162Z,9.00
2017-07-05T23:54:26.471Z,8.53
2017-07-05T23:56:54.030Z,10.20
2017-07-05T23:59:21.551Z,9.30
